sensor_id;sensor_type;location;lat;lon;timestamp;temperature;humidity
12386;DHT22;6257;57.634;18.310;2023-07-24T00:01:19;14.00;99.90
12386;DHT22;6257;57.634;18.310;2023-07-24T00:03:46;14.00;99.90
12386;DHT22;6257;57.634;18.310;2023-07-24T00:06:15;14.00;99.90
12386;DHT22;6257;57.634;18.310;2023-07-24T00:08:42;14.00;99.90
12386;DHT22;6257;57.634;18.310;2023-07-24T00:11:09;14.00;99.90
12386;DHT22;6257;57.634;18.310;2023-07-24T00:13:36;14.00;99.90
12386;DHT22;6257;57.634;18.310;2023-07-24T00:16:06;14.00;99.90
12386;DHT22;6257;57.634;18.310;2023-07-24T00:18:33;14.10;99.90
12386;DHT22;6257;57.634;18.310;2023-07-24T00:21:00;14.10;99.90
12386;DHT22;6257;57.634;18.310;2023-07-24T00:23:29;11.90;99.90
12386;DHT22;6257;57.634;18.310;2023-07-24T00:25:56;14.00;99.90
12386;DHT22;6257;57.634;18.310;2023-07-24T00:28:23;14.10;99.90
12386;DHT22;6257;57.634;18.310;2023-07-24T00:33:17;14.00;99.90
12386;DHT22;6257;57.634;18.310;2023-07-24T00:35:44;14.00;99.90
12386;DHT22;6257;57.634;18.310;2023-07-24T00:38:11;14.00;99.90
12386;DHT22;6257;57.634;18.310;2023-07-24T00:43:07;14.00;99.90
12386;DHT22;6257;57.634;18.310;2023-07-24T00:45:34;13.90;99.90
12386;DHT22;6257;57.634;18.310;2023-07-24T00:48:02;13.90;99.90
12386;DHT22;6257;57.634;18.310;2023-07-24T00:50:29;13.90;99.90
12386;DHT22;6257;57.634;18.310;2023-07-24T00:52:57;13.90;99.90
12386;DHT22;6257;57.634;18.310;2023-07-24T00:55:25;13.90;99.90
12386;DHT22;6257;57.634;18.310;2023-07-24T00:57:54;13.90;99.90
12386;DHT22;6257;57.634;18.310;2023-07-24T01:00:22;13.90;99.90
12386;DHT22;6257;57.634;18.310;2023-07-24T01:02:49;13.90;99.90
12386;DHT22;6257;57.634;18.310;2023-07-24T01:05:16;13.90;99.90
12386;DHT22;6257;57.634;18.310;2023-07-24T01:07:43;13.90;99.90
12386;DHT22;6257;57.634;18.310;2023-07-24T01:10:11;13.90;99.90
12386;DHT22;6257;57.634;18.310;2023-07-24T01:12:45;13.90;99.90
12386;DHT22;6257;57.634;18.310;2023-07-24T01:15:23;13.90;99.90
12386;DHT22;6257;57.634;18.310;2023-07-24T01:17:59;13.90;99.90
12386;DHT22;6257;57.634;18.310;2023-07-24T01:20:28;13.90;99.90
12386;DHT22;6257;57.634;18.310;2023-07-24T01:23:20;13.90;99.90
12386;DHT22;6257;57.634;18.310;2023-07-24T01:25:56;14.00;99.90
12386;DHT22;6257;57.634;18.310;2023-07-24T01:28:24;14.00;99.90
12386;DHT22;6257;57.634;18.310;2023-07-24T01:30:51;14.00;99.90
12386;DHT22;6257;57.634;18.310;2023-07-24T01:33:19;14.00;99.90
12386;DHT22;6257;57.634;18.310;2023-07-24T01:35:49;14.00;99.90
12386;DHT22;6257;57.634;18.310;2023-07-24T01:38:17;14.00;99.90
12386;DHT22;6257;57.634;18.310;2023-07-24T01:40:45;14.00;99.90
12386;DHT22;6257;57.634;18.310;2023-07-24T01:45:42;14.00;99.90
12386;DHT22;6257;57.634;18.310;2023-07-24T01:48:09;14.00;99.90
12386;DHT22;6257;57.634;18.310;2023-07-24T01:50:36;14.00;99.90
12386;DHT22;6257;57.634;18.310;2023-07-24T01:53:03;13.90;99.90
12386;DHT22;6257;57.634;18.310;2023-07-24T01:55:30;13.90;99.90
12386;DHT22;6257;57.634;18.310;2023-07-24T01:57:57;14.00;99.90
12386;DHT22;6257;57.634;18.310;2023-07-24T02:00:25;13.90;99.90
12386;DHT22;6257;57.634;18.310;2023-07-24T02:05:20;13.90;99.90
12386;DHT22;6257;57.634;18.310;2023-07-24T02:12:41;13.90;99.90
12386;DHT22;6257;57.634;18.310;2023-07-24T02:15:09;13.90;99.90
12386;DHT22;6257;57.634;18.310;2023-07-24T02:17:38;13.90;99.90
12386;DHT22;6257;57.634;18.310;2023-07-24T02:20:05;13.90;99.90
12386;DHT22;6257;57.634;18.310;2023-07-24T02:22:33;13.90;99.90
12386;DHT22;6257;57.634;18.310;2023-07-24T02:25:01;13.90;99.90
12386;DHT22;6257;57.634;18.310;2023-07-24T02:27:30;13.90;99.90
12386;DHT22;6257;57.634;18.310;2023-07-24T02:30:00;14.00;99.90
12386;DHT22;6257;57.634;18.310;2023-07-24T02:32:27;14.00;99.90
12386;DHT22;6257;57.634;18.310;2023-07-24T02:34:56;13.90;99.90
12386;DHT22;6257;57.634;18.310;2023-07-24T02:37:23;14.00;99.90
12386;DHT22;6257;57.634;18.310;2023-07-24T02:39:51;13.90;99.90
12386;DHT22;6257;57.634;18.310;2023-07-24T02:42:18;13.90;99.90
12386;DHT22;6257;57.634;18.310;2023-07-24T02:44:45;14.00;99.90
12386;DHT22;6257;57.634;18.310;2023-07-24T02:47:12;14.00;99.90
12386;DHT22;6257;57.634;18.310;2023-07-24T02:49:39;14.00;99.90
12386;DHT22;6257;57.634;18.310;2023-07-24T02:52:08;14.00;99.90
12386;DHT22;6257;57.634;18.310;2023-07-24T02:54:35;14.00;99.90
12386;DHT22;6257;57.634;18.310;2023-07-24T02:57:02;14.00;99.90
12386;DHT22;6257;57.634;18.310;2023-07-24T02:59:29;14.00;99.90
12386;DHT22;6257;57.634;18.310;2023-07-24T03:01:57;14.00;99.90
12386;DHT22;6257;57.634;18.310;2023-07-24T03:04:24;14.00;99.90
12386;DHT22;6257;57.634;18.310;2023-07-24T03:06:51;14.00;99.90
12386;DHT22;6257;57.634;18.310;2023-07-24T03:09:20;14.00;99.90
12386;DHT22;6257;57.634;18.310;2023-07-24T03:11:47;14.10;99.90
12386;DHT22;6257;57.634;18.310;2023-07-24T03:14:14;14.10;99.90
12386;DHT22;6257;57.634;18.310;2023-07-24T03:16:41;14.10;99.90
12386;DHT22;6257;57.634;18.310;2023-07-24T03:19:07;14.10;99.90
12386;DHT22;6257;57.634;18.310;2023-07-24T03:21:34;11.10;99.90
12386;DHT22;6257;57.634;18.310;2023-07-24T03:24:01;14.10;99.90
12386;DHT22;6257;57.634;18.310;2023-07-24T03:28:58;14.10;99.90
12386;DHT22;6257;57.634;18.310;2023-07-24T03:31:25;14.10;99.90
12386;DHT22;6257;57.634;18.310;2023-07-24T03:33:52;14.10;99.90
12386;DHT22;6257;57.634;18.310;2023-07-24T03:36:19;14.00;99.90
12386;DHT22;6257;57.634;18.310;2023-07-24T03:38:46;14.00;99.90
12386;DHT22;6257;57.634;18.310;2023-07-24T03:41:13;14.00;99.90
12386;DHT22;6257;57.634;18.310;2023-07-24T03:43:41;14.00;99.90
12386;DHT22;6257;57.634;18.310;2023-07-24T03:46:08;14.00;99.90
12386;DHT22;6257;57.634;18.310;2023-07-24T03:48:35;14.00;99.90
12386;DHT22;6257;57.634;18.310;2023-07-24T03:51:02;14.10;99.90
12386;DHT22;6257;57.634;18.310;2023-07-24T03:53:29;14.10;99.90
12386;DHT22;6257;57.634;18.310;2023-07-24T03:55:57;14.10;99.90
12386;DHT22;6257;57.634;18.310;2023-07-24T03:58:24;14.20;99.90
12386;DHT22;6257;57.634;18.310;2023-07-24T04:00:52;14.20;99.90
12386;DHT22;6257;57.634;18.310;2023-07-24T04:03:19;14.20;99.90
12386;DHT22;6257;57.634;18.310;2023-07-24T04:05:46;14.20;99.90
12386;DHT22;6257;57.634;18.310;2023-07-24T04:08:13;14.20;99.90
12386;DHT22;6257;57.634;18.310;2023-07-24T04:10:40;14.30;99.90
12386;DHT22;6257;57.634;18.310;2023-07-24T04:13:07;14.30;99.90
12386;DHT22;6257;57.634;18.310;2023-07-24T04:15:34;14.40;99.90
12386;DHT22;6257;57.634;18.310;2023-07-24T04:18:03;14.30;99.90
12386;DHT22;6257;57.634;18.310;2023-07-24T04:20:30;14.40;99.90
12386;DHT22;6257;57.634;18.310;2023-07-24T04:22:57;14.40;99.90
12386;DHT22;6257;57.634;18.310;2023-07-24T04:25:24;14.40;99.90
12386;DHT22;6257;57.634;18.310;2023-07-24T04:27:51;14.40;99.90
12386;DHT22;6257;57.634;18.310;2023-07-24T04:30:19;14.50;99.90
12386;DHT22;6257;57.634;18.310;2023-07-24T04:32:46;14.50;99.90
12386;DHT22;6257;57.634;18.310;2023-07-24T04:35:14;14.60;99.90
12386;DHT22;6257;57.634;18.310;2023-07-24T04:37:41;14.70;99.90
12386;DHT22;6257;57.634;18.310;2023-07-24T04:40:09;14.70;99.90
12386;DHT22;6257;57.634;18.310;2023-07-24T04:42:36;14.80;99.90
12386;DHT22;6257;57.634;18.310;2023-07-24T04:45:04;14.90;99.90
12386;DHT22;6257;57.634;18.310;2023-07-24T04:47:31;14.90;99.90
12386;DHT22;6257;57.634;18.310;2023-07-24T04:49:58;15.00;99.90
12386;DHT22;6257;57.634;18.310;2023-07-24T04:54:54;15.00;99.90
12386;DHT22;6257;57.634;18.310;2023-07-24T04:57:21;15.00;99.90
12386;DHT22;6257;57.634;18.310;2023-07-24T04:59:48;15.10;99.90
12386;DHT22;6257;57.634;18.310;2023-07-24T05:02:15;15.10;99.90
12386;DHT22;6257;57.634;18.310;2023-07-24T05:07:09;15.30;99.90
12386;DHT22;6257;57.634;18.310;2023-07-24T05:12:06;15.40;99.90
12386;DHT22;6257;57.634;18.310;2023-07-24T05:14:33;15.40;99.90
12386;DHT22;6257;57.634;18.310;2023-07-24T05:17:00;15.40;99.90
12386;DHT22;6257;57.634;18.310;2023-07-24T05:21:55;15.20;99.90
12386;DHT22;6257;57.634;18.310;2023-07-24T05:29:18;15.20;99.90
12386;DHT22;6257;57.634;18.310;2023-07-24T05:31:45;15.10;99.90
12386;DHT22;6257;57.634;18.310;2023-07-24T05:34:12;15.20;99.90
12386;DHT22;6257;57.634;18.310;2023-07-24T05:36:40;15.30;99.90
12386;DHT22;6257;57.634;18.310;2023-07-24T05:39:07;15.30;99.90
12386;DHT22;6257;57.634;18.310;2023-07-24T05:41:34;15.40;99.90
12386;DHT22;6257;57.634;18.310;2023-07-24T05:46:30;15.40;99.90
12386;DHT22;6257;57.634;18.310;2023-07-24T05:48:57;15.40;99.90
12386;DHT22;6257;57.634;18.310;2023-07-24T05:51:26;15.30;99.90
12386;DHT22;6257;57.634;18.310;2023-07-24T05:53:53;15.40;99.90
12386;DHT22;6257;57.634;18.310;2023-07-24T05:56:20;15.40;99.90
12386;DHT22;6257;57.634;18.310;2023-07-24T05:58:47;15.40;99.90
12386;DHT22;6257;57.634;18.310;2023-07-24T06:01:15;15.40;99.90
12386;DHT22;6257;57.634;18.310;2023-07-24T06:03:42;15.50;99.90
12386;DHT22;6257;57.634;18.310;2023-07-24T06:06:09;15.40;99.90
12386;DHT22;6257;57.634;18.310;2023-07-24T06:08:36;15.50;99.90
12386;DHT22;6257;57.634;18.310;2023-07-24T06:11:03;15.50;99.90
12386;DHT22;6257;57.634;18.310;2023-07-24T06:13:30;15.50;99.90
12386;DHT22;6257;57.634;18.310;2023-07-24T06:15:57;15.50;99.90
12386;DHT22;6257;57.634;18.310;2023-07-24T06:18:26;15.50;99.90
12386;DHT22;6257;57.634;18.310;2023-07-24T06:20:53;15.60;99.90
12386;DHT22;6257;57.634;18.310;2023-07-24T06:23:20;15.60;99.90
12386;DHT22;6257;57.634;18.310;2023-07-24T06:25:47;15.60;99.90
12386;DHT22;6257;57.634;18.310;2023-07-24T06:28:14;15.60;99.90
12386;DHT22;6257;57.634;18.310;2023-07-24T06:30:41;15.60;99.90
12386;DHT22;6257;57.634;18.310;2023-07-24T06:33:08;15.70;99.90
12386;DHT22;6257;57.634;18.310;2023-07-24T06:35:36;15.60;99.90
12386;DHT22;6257;57.634;18.310;2023-07-24T06:38:03;15.60;99.90
12386;DHT22;6257;57.634;18.310;2023-07-24T06:40:31;15.60;99.90
12386;DHT22;6257;57.634;18.310;2023-07-24T06:42:58;15.60;99.90
12386;DHT22;6257;57.634;18.310;2023-07-24T06:45:25;15.60;99.90
12386;DHT22;6257;57.634;18.310;2023-07-24T06:47:52;15.60;99.90
12386;DHT22;6257;57.634;18.310;2023-07-24T06:50:19;15.60;99.90
12386;DHT22;6257;57.634;18.310;2023-07-24T06:52:47;15.60;99.90
12386;DHT22;6257;57.634;18.310;2023-07-24T06:55:16;15.60;99.90
12386;DHT22;6257;57.634;18.310;2023-07-24T06:57:43;15.50;99.90
12386;DHT22;6257;57.634;18.310;2023-07-24T07:00:11;15.50;99.90
12386;DHT22;6257;57.634;18.310;2023-07-24T07:02:39;15.50;99.90
12386;DHT22;6257;57.634;18.310;2023-07-24T07:05:06;15.50;99.90
12386;DHT22;6257;57.634;18.310;2023-07-24T07:07:33;15.50;99.90
12386;DHT22;6257;57.634;18.310;2023-07-24T07:12:29;15.50;99.90
12386;DHT22;6257;57.634;18.310;2023-07-24T07:14:56;15.50;99.90
12386;DHT22;6257;57.634;18.310;2023-07-24T07:17:23;15.50;99.90
12386;DHT22;6257;57.634;18.310;2023-07-24T07:19:50;15.50;99.90
12386;DHT22;6257;57.634;18.310;2023-07-24T07:22:17;15.50;99.90
12386;DHT22;6257;57.634;18.310;2023-07-24T07:24:44;15.50;99.90
12386;DHT22;6257;57.634;18.310;2023-07-24T07:27:13;15.50;99.90
12386;DHT22;6257;57.634;18.310;2023-07-24T07:29:42;15.50;99.90
12386;DHT22;6257;57.634;18.310;2023-07-24T07:32:09;15.50;99.90
12386;DHT22;6257;57.634;18.310;2023-07-24T07:34:36;15.40;99.90
12386;DHT22;6257;57.634;18.310;2023-07-24T07:37:04;15.40;99.90
12386;DHT22;6257;57.634;18.310;2023-07-24T07:39:31;15.40;99.90
12386;DHT22;6257;57.634;18.310;2023-07-24T07:41:59;15.50;99.90
12386;DHT22;6257;57.634;18.310;2023-07-24T07:44:27;15.50;99.90
12386;DHT22;6257;57.634;18.310;2023-07-24T07:46:54;15.40;99.90
12386;DHT22;6257;57.634;18.310;2023-07-24T07:49:21;15.40;99.90
12386;DHT22;6257;57.634;18.310;2023-07-24T07:51:48;15.40;99.90
12386;DHT22;6257;57.634;18.310;2023-07-24T07:54:15;15.40;99.90
12386;DHT22;6257;57.634;18.310;2023-07-24T07:56:42;15.40;99.90
12386;DHT22;6257;57.634;18.310;2023-07-24T07:59:09;15.40;99.90
12386;DHT22;6257;57.634;18.310;2023-07-24T08:01:38;15.50;99.90
12386;DHT22;6257;57.634;18.310;2023-07-24T08:04:06;15.50;99.90
12386;DHT22;6257;57.634;18.310;2023-07-24T08:06:33;15.50;99.90
12386;DHT22;6257;57.634;18.310;2023-07-24T08:09:00;15.50;99.90
12386;DHT22;6257;57.634;18.310;2023-07-24T08:11:26;15.50;99.90
12386;DHT22;6257;57.634;18.310;2023-07-24T08:13:54;15.40;99.90
12386;DHT22;6257;57.634;18.310;2023-07-24T08:16:21;15.50;99.90
12386;DHT22;6257;57.634;18.310;2023-07-24T08:18:50;15.60;99.90
12386;DHT22;6257;57.634;18.310;2023-07-24T08:21:17;15.60;99.90
12386;DHT22;6257;57.634;18.310;2023-07-24T08:23:44;15.60;99.90
12386;DHT22;6257;57.634;18.310;2023-07-24T08:26:11;15.60;99.90
12386;DHT22;6257;57.634;18.310;2023-07-24T08:28:38;15.70;99.90
12386;DHT22;6257;57.634;18.310;2023-07-24T08:31:08;15.70;99.90
12386;DHT22;6257;57.634;18.310;2023-07-24T08:33:35;15.80;99.90
12386;DHT22;6257;57.634;18.310;2023-07-24T08:36:05;15.90;99.90
12386;DHT22;6257;57.634;18.310;2023-07-24T08:38:32;16.00;99.90
12386;DHT22;6257;57.634;18.310;2023-07-24T08:41:03;16.10;99.90
12386;DHT22;6257;57.634;18.310;2023-07-24T08:43:31;16.50;99.90
12386;DHT22;6257;57.634;18.310;2023-07-24T08:46:00;16.70;99.90
12386;DHT22;6257;57.634;18.310;2023-07-24T08:48:32;16.80;99.90
12386;DHT22;6257;57.634;18.310;2023-07-24T08:51:03;16.90;99.90
12386;DHT22;6257;57.634;18.310;2023-07-24T08:53:30;17.00;99.90
12386;DHT22;6257;57.634;18.310;2023-07-24T08:55:59;17.00;99.90
12386;DHT22;6257;57.634;18.310;2023-07-24T08:58:27;16.80;99.90
12386;DHT22;6257;57.634;18.310;2023-07-24T09:00:56;16.60;99.90
12386;DHT22;6257;57.634;18.310;2023-07-24T09:03:24;16.50;99.90
12386;DHT22;6257;57.634;18.310;2023-07-24T09:05:51;16.50;99.90
12386;DHT22;6257;57.634;18.310;2023-07-24T09:08:29;16.60;99.90
12386;DHT22;6257;57.634;18.310;2023-07-24T09:10:57;16.80;99.90
12386;DHT22;6257;57.634;18.310;2023-07-24T09:13:25;16.90;99.90
12386;DHT22;6257;57.634;18.310;2023-07-24T09:15:52;16.90;99.90
12386;DHT22;6257;57.634;18.310;2023-07-24T09:18:19;17.00;99.90
12386;DHT22;6257;57.634;18.310;2023-07-24T09:20:47;17.10;99.90
12386;DHT22;6257;57.634;18.310;2023-07-24T09:23:15;17.10;99.90
12386;DHT22;6257;57.634;18.310;2023-07-24T09:25:44;17.20;99.90
12386;DHT22;6257;57.634;18.310;2023-07-24T09:28:12;17.30;99.90
12386;DHT22;6257;57.634;18.310;2023-07-24T09:30:40;17.30;99.90
12386;DHT22;6257;57.634;18.310;2023-07-24T09:33:07;17.50;99.90
12386;DHT22;6257;57.634;18.310;2023-07-24T09:35:35;17.50;99.90
12386;DHT22;6257;57.634;18.310;2023-07-24T09:38:03;17.50;99.90
12386;DHT22;6257;57.634;18.310;2023-07-24T09:40:38;17.50;99.90
12386;DHT22;6257;57.634;18.310;2023-07-24T09:45:45;17.50;99.90
12386;DHT22;6257;57.634;18.310;2023-07-24T09:48:14;17.60;99.90
12386;DHT22;6257;57.634;18.310;2023-07-24T09:50:42;17.90;99.90
12386;DHT22;6257;57.634;18.310;2023-07-24T09:53:13;17.90;99.90
12386;DHT22;6257;57.634;18.310;2023-07-24T09:55:48;18.10;99.90
12386;DHT22;6257;57.634;18.310;2023-07-24T09:58:18;18.40;99.90
12386;DHT22;6257;57.634;18.310;2023-07-24T10:00:48;18.50;99.90
12386;DHT22;6257;57.634;18.310;2023-07-24T10:03:16;18.60;99.90
12386;DHT22;6257;57.634;18.310;2023-07-24T10:05:44;18.80;99.90
12386;DHT22;6257;57.634;18.310;2023-07-24T10:08:11;18.90;99.90
12386;DHT22;6257;57.634;18.310;2023-07-24T10:10:39;19.10;99.90
12386;DHT22;6257;57.634;18.310;2023-07-24T10:13:06;19.10;99.90
12386;DHT22;6257;57.634;18.310;2023-07-24T10:15:38;19.20;99.90
12386;DHT22;6257;57.634;18.310;2023-07-24T10:18:06;19.10;99.90
12386;DHT22;6257;57.634;18.310;2023-07-24T10:20:34;19.10;99.90
12386;DHT22;6257;57.634;18.310;2023-07-24T10:23:02;19.20;99.90
12386;DHT22;6257;57.634;18.310;2023-07-24T10:25:30;19.30;99.90
12386;DHT22;6257;57.634;18.310;2023-07-24T10:28:02;19.40;99.90
12386;DHT22;6257;57.634;18.310;2023-07-24T10:30:33;19.30;99.90
12386;DHT22;6257;57.634;18.310;2023-07-24T10:33:07;19.40;99.90
12386;DHT22;6257;57.634;18.310;2023-07-24T10:35:38;19.40;99.90
12386;DHT22;6257;57.634;18.310;2023-07-24T10:38:05;19.40;99.90
12386;DHT22;6257;57.634;18.310;2023-07-24T10:40:33;19.40;99.90
12386;DHT22;6257;57.634;18.310;2023-07-24T10:43:03;19.30;99.90
12386;DHT22;6257;57.634;18.310;2023-07-24T10:45:46;19.30;99.90
12386;DHT22;6257;57.634;18.310;2023-07-24T10:48:16;20.70;99.90
12386;DHT22;6257;57.634;18.310;2023-07-24T10:50:44;19.50;99.90
12386;DHT22;6257;57.634;18.310;2023-07-24T10:53:13;19.80;99.90
12386;DHT22;6257;57.634;18.310;2023-07-24T10:55:41;20.10;99.90
12386;DHT22;6257;57.634;18.310;2023-07-24T10:58:08;20.50;99.90
12386;DHT22;6257;57.634;18.310;2023-07-24T11:00:36;20.60;99.90
12386;DHT22;6257;57.634;18.310;2023-07-24T11:03:03;20.60;99.90
12386;DHT22;6257;57.634;18.310;2023-07-24T11:05:32;20.40;99.90
12386;DHT22;6257;57.634;18.310;2023-07-24T11:07:59;20.30;99.90
12386;DHT22;6257;57.634;18.310;2023-07-24T11:10:27;20.30;99.90
12386;DHT22;6257;57.634;18.310;2023-07-24T11:12:56;20.10;99.90
12386;DHT22;6257;57.634;18.310;2023-07-24T11:15:26;20.10;99.90
12386;DHT22;6257;57.634;18.310;2023-07-24T11:17:54;20.10;99.90
12386;DHT22;6257;57.634;18.310;2023-07-24T11:20:21;20.00;99.90
12386;DHT22;6257;57.634;18.310;2023-07-24T11:22:49;19.90;99.90
12386;DHT22;6257;57.634;18.310;2023-07-24T11:25:16;19.90;99.90
12386;DHT22;6257;57.634;18.310;2023-07-24T11:27:44;20.00;99.90
12386;DHT22;6257;57.634;18.310;2023-07-24T11:30:18;20.20;99.90
12386;DHT22;6257;57.634;18.310;2023-07-24T11:32:46;20.30;99.90
12386;DHT22;6257;57.634;18.310;2023-07-24T11:35:13;20.30;99.90
12386;DHT22;6257;57.634;18.310;2023-07-24T11:37:40;20.20;99.90
12386;DHT22;6257;57.634;18.310;2023-07-24T11:40:10;20.30;99.90
12386;DHT22;6257;57.634;18.310;2023-07-24T11:42:43;20.50;99.90
12386;DHT22;6257;57.634;18.310;2023-07-24T11:45:10;20.60;99.90
12386;DHT22;6257;57.634;18.310;2023-07-24T11:47:44;20.60;99.90
12386;DHT22;6257;57.634;18.310;2023-07-24T11:50:12;20.50;99.90
12386;DHT22;6257;57.634;18.310;2023-07-24T11:52:40;20.30;99.90
12386;DHT22;6257;57.634;18.310;2023-07-24T11:55:10;20.10;99.90
12386;DHT22;6257;57.634;18.310;2023-07-24T11:57:37;20.20;99.90
12386;DHT22;6257;57.634;18.310;2023-07-24T12:00:16;20.40;99.90
12386;DHT22;6257;57.634;18.310;2023-07-24T12:02:43;20.50;99.90
12386;DHT22;6257;57.634;18.310;2023-07-24T12:05:11;20.50;99.90
12386;DHT22;6257;57.634;18.310;2023-07-24T12:07:38;20.50;99.90
12386;DHT22;6257;57.634;18.310;2023-07-24T12:10:06;20.40;99.90
12386;DHT22;6257;57.634;18.310;2023-07-24T12:12:39;20.50;99.90
12386;DHT22;6257;57.634;18.310;2023-07-24T12:15:07;20.40;99.90
12386;DHT22;6257;57.634;18.310;2023-07-24T12:17:35;20.30;99.90
12386;DHT22;6257;57.634;18.310;2023-07-24T12:20:02;20.20;99.90
12386;DHT22;6257;57.634;18.310;2023-07-24T12:22:30;20.10;99.90
12386;DHT22;6257;57.634;18.310;2023-07-24T12:24:57;20.20;99.90
12386;DHT22;6257;57.634;18.310;2023-07-24T12:27:24;20.30;99.90
12386;DHT22;6257;57.634;18.310;2023-07-24T12:29:53;20.40;99.90
12386;DHT22;6257;57.634;18.310;2023-07-24T12:32:20;20.50;99.90
12386;DHT22;6257;57.634;18.310;2023-07-24T12:34:49;20.40;99.90
12386;DHT22;6257;57.634;18.310;2023-07-24T12:37:17;20.40;99.90
12386;DHT22;6257;57.634;18.310;2023-07-24T12:39:46;20.50;99.90
12386;DHT22;6257;57.634;18.310;2023-07-24T12:42:13;20.50;99.90
12386;DHT22;6257;57.634;18.310;2023-07-24T12:44:41;20.60;99.90
12386;DHT22;6257;57.634;18.310;2023-07-24T12:47:10;20.90;99.90
12386;DHT22;6257;57.634;18.310;2023-07-24T12:49:37;21.20;99.90
12386;DHT22;6257;57.634;18.310;2023-07-24T12:52:05;21.30;99.90
12386;DHT22;6257;57.634;18.310;2023-07-24T12:54:32;21.30;99.90
12386;DHT22;6257;57.634;18.310;2023-07-24T12:57:00;21.40;99.90
12386;DHT22;6257;57.634;18.310;2023-07-24T12:59:27;21.40;99.90
12386;DHT22;6257;57.634;18.310;2023-07-24T13:01:54;21.40;99.90
12386;DHT22;6257;57.634;18.310;2023-07-24T13:04:23;21.30;99.90
12386;DHT22;6257;57.634;18.310;2023-07-24T13:06:50;21.20;99.90
12386;DHT22;6257;57.634;18.310;2023-07-24T13:09:18;21.10;99.90
12386;DHT22;6257;57.634;18.310;2023-07-24T13:11:45;21.10;99.90
12386;DHT22;6257;57.634;18.310;2023-07-24T13:14:14;21.10;99.90
12386;DHT22;6257;57.634;18.310;2023-07-24T13:16:41;21.10;99.90
12386;DHT22;6257;57.634;18.310;2023-07-24T13:19:08;21.10;99.90
12386;DHT22;6257;57.634;18.310;2023-07-24T13:21:37;21.10;99.90
12386;DHT22;6257;57.634;18.310;2023-07-24T13:24:05;21.00;99.90
12386;DHT22;6257;57.634;18.310;2023-07-24T13:26:32;21.00;99.90
12386;DHT22;6257;57.634;18.310;2023-07-24T13:28:59;21.10;99.90
12386;DHT22;6257;57.634;18.310;2023-07-24T13:31:26;21.20;99.90
12386;DHT22;6257;57.634;18.310;2023-07-24T13:33:54;21.10;99.90
12386;DHT22;6257;57.634;18.310;2023-07-24T13:36:21;20.90;99.90
12386;DHT22;6257;57.634;18.310;2023-07-24T13:38:50;20.80;99.90
12386;DHT22;6257;57.634;18.310;2023-07-24T13:41:17;20.80;99.90
12386;DHT22;6257;57.634;18.310;2023-07-24T13:43:44;20.80;99.90
12386;DHT22;6257;57.634;18.310;2023-07-24T13:46:11;20.90;99.90
12386;DHT22;6257;57.634;18.310;2023-07-24T13:48:38;21.00;99.90
12386;DHT22;6257;57.634;18.310;2023-07-24T13:51:05;21.10;99.90
12386;DHT22;6257;57.634;18.310;2023-07-24T13:53:32;21.00;99.90
12386;DHT22;6257;57.634;18.310;2023-07-24T13:56:01;20.90;99.90
12386;DHT22;6257;57.634;18.310;2023-07-24T13:58:28;21.00;99.90
12386;DHT22;6257;57.634;18.310;2023-07-24T14:00:55;21.20;99.90
12386;DHT22;6257;57.634;18.310;2023-07-24T14:03:22;21.30;99.90
12386;DHT22;6257;57.634;18.310;2023-07-24T14:05:55;21.30;99.90
12386;DHT22;6257;57.634;18.310;2023-07-24T14:08:22;21.30;99.90
12386;DHT22;6257;57.634;18.310;2023-07-24T14:10:49;21.30;99.90
12386;DHT22;6257;57.634;18.310;2023-07-24T14:13:18;21.30;99.90
12386;DHT22;6257;57.634;18.310;2023-07-24T14:15:45;21.30;99.90
12386;DHT22;6257;57.634;18.310;2023-07-24T14:18:12;21.10;99.90
12386;DHT22;6257;57.634;18.310;2023-07-24T14:20:39;21.00;99.90
12386;DHT22;6257;57.634;18.310;2023-07-24T14:23:06;20.90;99.90
12386;DHT22;6257;57.634;18.310;2023-07-24T14:25:34;20.80;99.90
12386;DHT22;6257;57.634;18.310;2023-07-24T14:28:01;20.80;99.90
12386;DHT22;6257;57.634;18.310;2023-07-24T14:30:30;20.80;99.90
12386;DHT22;6257;57.634;18.310;2023-07-24T14:32:57;20.90;99.90
12386;DHT22;6257;57.634;18.310;2023-07-24T14:35:24;21.00;99.90
12386;DHT22;6257;57.634;18.310;2023-07-24T14:37:51;21.00;99.90
12386;DHT22;6257;57.634;18.310;2023-07-24T14:40:18;21.10;99.90
12386;DHT22;6257;57.634;18.310;2023-07-24T14:42:45;21.20;99.90
12386;DHT22;6257;57.634;18.310;2023-07-24T14:45:12;21.30;99.90
12386;DHT22;6257;57.634;18.310;2023-07-24T14:47:41;21.40;99.90
12386;DHT22;6257;57.634;18.310;2023-07-24T14:50:09;21.40;99.90
12386;DHT22;6257;57.634;18.310;2023-07-24T14:52:36;21.20;99.90
12386;DHT22;6257;57.634;18.310;2023-07-24T14:57:31;21.00;99.90
12386;DHT22;6257;57.634;18.310;2023-07-24T14:59:58;20.10;99.90
12386;DHT22;6257;57.634;18.310;2023-07-24T15:02:26;20.90;99.90
12386;DHT22;6257;57.634;18.310;2023-07-24T15:04:54;20.90;99.90
12386;DHT22;6257;57.634;18.310;2023-07-24T15:07:21;20.80;99.90
12386;DHT22;6257;57.634;18.310;2023-07-24T15:09:48;21.10;99.90
12386;DHT22;6257;57.634;18.310;2023-07-24T15:12:15;21.20;99.90
12386;DHT22;6257;57.634;18.310;2023-07-24T15:14:42;21.20;99.90
12386;DHT22;6257;57.634;18.310;2023-07-24T15:17:09;21.10;99.90
12386;DHT22;6257;57.634;18.310;2023-07-24T15:19:37;21.20;99.90
12386;DHT22;6257;57.634;18.310;2023-07-24T15:22:06;21.40;99.90
12386;DHT22;6257;57.634;18.310;2023-07-24T15:24:33;21.60;99.90
12386;DHT22;6257;57.634;18.310;2023-07-24T15:27:00;21.90;99.90
12386;DHT22;6257;57.634;18.310;2023-07-24T15:29:33;22.00;99.90
12386;DHT22;6257;57.634;18.310;2023-07-24T15:32:00;22.00;99.90
12386;DHT22;6257;57.634;18.310;2023-07-24T15:34:28;22.00;99.90
12386;DHT22;6257;57.634;18.310;2023-07-24T15:36:55;22.00;99.90
12386;DHT22;6257;57.634;18.310;2023-07-24T15:39:23;21.90;99.90
12386;DHT22;6257;57.634;18.310;2023-07-24T15:41:50;21.90;99.90
12386;DHT22;6257;57.634;18.310;2023-07-24T15:44:17;21.90;99.90
12386;DHT22;6257;57.634;18.310;2023-07-24T15:46:44;21.90;99.90
12386;DHT22;6257;57.634;18.310;2023-07-24T15:49:12;21.70;99.90
12386;DHT22;6257;57.634;18.310;2023-07-24T15:51:40;21.50;99.90
12386;DHT22;6257;57.634;18.310;2023-07-24T15:54:07;21.30;99.90
12386;DHT22;6257;57.634;18.310;2023-07-24T15:56:38;21.10;99.90
12386;DHT22;6257;57.634;18.310;2023-07-24T15:59:05;21.00;99.90
12386;DHT22;6257;57.634;18.310;2023-07-24T16:01:32;20.90;99.90
12386;DHT22;6257;57.634;18.310;2023-07-24T16:03:59;20.90;99.90
12386;DHT22;6257;57.634;18.310;2023-07-24T16:06:26;21.00;99.90
12386;DHT22;6257;57.634;18.310;2023-07-24T16:08:53;20.90;99.90
12386;DHT22;6257;57.634;18.310;2023-07-24T16:11:20;20.80;99.90
12386;DHT22;6257;57.634;18.310;2023-07-24T16:13:49;20.80;99.90
12386;DHT22;6257;57.634;18.310;2023-07-24T16:16:16;20.70;99.90